Terminal Aerodrome Forecast
Issued by NWS Green Bay, WI

Home | Current Version | Previous Version | Graphics & Text | Print | Product List | Glossary On
Versions: 1 2 3 4 5 6 7 8 9 10 11 12 13 14 15 16 17 18 19 20 21 22 23 24 25 26 27 28 29 30 31 32 33 34 35 36 37 38 39 40
000
FTUS43 KGRB 261903 AAB
TAFGRB
TAF AMD
KGRB 261903Z 2619/2718 14009KT 6SM BR OVC008
     FM270000 23006KT P6SM -SHRA SCT020 OVC050
     FM270300 28005KT 6SM SHRA OVC020
     FM270700 32007KT 4SM SHRA OVC008
     FM271700 27010KT 6SM -SHRA OVC010=

USA.gov is the U.S. government's official web portal to all federal, state and local government web resources and services.